createdAt,value
2023-07-16T00:00:00.313Z,76.86
2023-07-16T00:01:00.363Z,76.96
2023-07-16T00:02:00.375Z,77.16
2023-07-16T00:03:00.339Z,77.26
2023-07-16T00:04:00.346Z,77.26
2023-07-16T00:05:00.268Z,77.26
2023-07-16T00:06:00.278Z,77.16
2023-07-16T00:07:00.306Z,77.36
2023-07-16T00:08:00.235Z,77.56
2023-07-16T00:09:00.235Z,77.66
2023-07-16T00:10:00.222Z,77.66
2023-07-16T00:11:00.192Z,77.26
2023-07-16T00:12:00.189Z,77.26
2023-07-16T00:13:00.182Z,77.26
2023-07-16T00:14:00.949Z,77.16
2023-07-16T00:15:00.170Z,77.26
2023-07-16T00:16:00.246Z,77.36
2023-07-16T00:17:00.322Z,77.26
2023-07-16T00:18:00.173Z,77.36
2023-07-16T00:19:00.159Z,77.46
2023-07-16T00:20:00.163Z,77.56
2023-07-16T00:21:00.077Z,77.66
2023-07-16T00:22:00.696Z,77.99
2023-07-16T00:23:00.120Z,78.09
2023-07-16T00:24:00.144Z,78.19
2023-07-16T00:25:00.027Z,78.09
2023-07-16T00:26:00.033Z,78.09
2023-07-16T00:27:00.026Z,78.29
2023-07-16T00:28:00.302Z,78.59
2023-07-16T00:29:00.418Z,78.89
2023-07-16T00:30:00.585Z,78.99
2023-07-16T00:31:00.033Z,79.19
2023-07-16T00:32:00.699Z,79.28
2023-07-16T00:32:59.970Z,78.99
2023-07-16T00:33:59.947Z,79.09
2023-07-16T00:34:59.952Z,78.89
2023-07-16T00:35:59.923Z,78.89
2023-07-16T00:36:59.960Z,79.09
2023-07-16T00:37:59.902Z,78.99
2023-07-16T00:38:59.888Z,79.09
2023-07-16T00:39:59.908Z,79.19
2023-07-16T00:40:59.873Z,79.19
2023-07-16T00:41:59.863Z,79.09
2023-07-16T00:42:59.843Z,79.43
2023-07-16T00:43:59.833Z,79.43
2023-07-16T00:44:59.879Z,79.43
2023-07-16T00:45:59.888Z,79.63
2023-07-16T00:46:59.927Z,79.93
2023-07-16T00:47:59.817Z,80.02
2023-07-16T00:48:59.790Z,80.02
2023-07-16T00:49:59.763Z,80.12
2023-07-16T00:50:59.751Z,80.32
2023-07-16T00:51:59.757Z,80.42
2023-07-16T00:52:59.753Z,80.72
2023-07-16T00:53:59.736Z,80.72
2023-07-16T00:54:59.718Z,80.92
2023-07-16T00:55:59.721Z,81.02
2023-07-16T00:56:59.727Z,81.12
2023-07-16T00:57:59.702Z,81.12
2023-07-16T00:58:59.667Z,81.22
2023-07-16T00:59:59.683Z,81.22
2023-07-16T01:00:59.637Z,81.02
2023-07-16T01:01:59.724Z,81.02
2023-07-16T01:02:59.761Z,81.26
2023-07-16T01:03:59.629Z,81.22
2023-07-16T01:05:00.709Z,81.26
2023-07-16T01:05:59.594Z,81.36
2023-07-16T01:06:59.640Z,81.46
2023-07-16T01:07:59.587Z,81.46
2023-07-16T01:08:59.572Z,81.56
2023-07-16T01:09:59.625Z,81.56
2023-07-16T01:10:59.537Z,81.85
2023-07-16T01:11:59.554Z,81.85
2023-07-16T01:12:59.540Z,82.35
2023-07-16T01:13:59.527Z,82.35
2023-07-16T01:15:00.093Z,82.56
2023-07-16T01:15:59.514Z,82.86
2023-07-16T01:16:59.561Z,83.15
2023-07-16T01:17:59.535Z,82.95
2023-07-16T01:18:59.456Z,83.09
2023-07-16T01:19:59.544Z,83.19
2023-07-16T01:20:59.435Z,83.19
2023-07-16T01:21:59.429Z,83.39
2023-07-16T01:22:59.502Z,83.09
2023-07-16T01:23:59.407Z,83.43
2023-07-16T01:24:59.416Z,83.73
2023-07-16T01:26:00.215Z,83.73
2023-07-16T01:26:59.365Z,83.53
2023-07-16T01:27:59.391Z,83.43
2023-07-16T01:28:59.360Z,83.53
2023-07-16T01:29:59.399Z,83.63
2023-07-16T01:30:59.338Z,83.63
2023-07-16T01:31:59.350Z,83.83
2023-07-16T01:32:59.665Z,83.73
2023-07-16T01:33:59.361Z,83.43
2023-07-16T01:34:59.295Z,83.63
2023-07-16T01:35:59.303Z,83.73
2023-07-16T01:36:59.265Z,83.43
2023-07-16T01:37:59.294Z,83.53
2023-07-16T01:38:59.271Z,83.53
2023-07-16T01:39:59.245Z,83.53
2023-07-16T01:40:59.232Z,83.23
2023-07-16T01:41:59.237Z,83.03
2023-07-16T01:42:59.251Z,82.93
2023-07-16T01:43:59.192Z,83.03
2023-07-16T01:44:59.222Z,83.13
2023-07-16T01:45:59.223Z,83.03
2023-07-16T01:46:59.176Z,82.83
2023-07-16T01:47:59.184Z,82.64
2023-07-16T01:48:59.142Z,82.34
2023-07-16T01:49:59.147Z,82.34
2023-07-16T01:50:59.113Z,82.03
2023-07-16T01:51:59.120Z,81.93
2023-07-16T01:52:59.096Z,81.93
2023-07-16T01:53:59.087Z,81.93
2023-07-16T01:54:59.226Z,81.73
2023-07-16T01:55:59.076Z,81.54
2023-07-16T01:56:59.054Z,81.34
2023-07-16T01:57:59.724Z,81.34
2023-07-16T01:58:59.049Z,81.34
2023-07-16T01:59:59.023Z,81.04
2023-07-16T02:00:59.192Z,81.13
2023-07-16T02:01:59.015Z,81.04
2023-07-16T02:02:59.090Z,81.04
2023-07-16T02:03:58.986Z,80.94
2023-07-16T02:04:58.994Z,80.83
2023-07-16T02:05:59.013Z,80.83
2023-07-16T02:06:58.942Z,80.70
2023-07-16T02:07:58.939Z,80.60
2023-07-16T02:08:58.929Z,80.40
2023-07-16T02:09:58.914Z,80.40
2023-07-16T02:10:59.628Z,80.10
2023-07-16T02:11:58.911Z,80.00
2023-07-16T02:12:58.875Z,79.90
2023-07-16T02:13:58.874Z,79.90
2023-07-16T02:14:58.893Z,79.90
2023-07-16T02:15:58.920Z,80.10
2023-07-16T02:16:58.850Z,80.60
2023-07-16T02:17:58.891Z,81.00
2023-07-16T02:18:58.831Z,81.79
2023-07-16T02:19:58.820Z,82.29
2023-07-16T02:20:58.849Z,82.69
2023-07-16T02:21:58.778Z,83.29
2023-07-16T02:22:58.826Z,83.69
2023-07-16T02:23:59.003Z,84.39
2023-07-16T02:24:58.752Z,84.83
2023-07-16T02:25:58.910Z,84.93
2023-07-16T02:26:59.258Z,85.83
2023-07-16T02:27:58.727Z,85.93
2023-07-16T02:28:58.755Z,86.17
2023-07-16T02:29:58.749Z,86.36
2023-07-16T02:30:58.750Z,86.77
2023-07-16T02:31:58.676Z,87.01
2023-07-16T02:32:58.709Z,87.30
2023-07-16T02:33:58.667Z,87.71
2023-07-16T02:34:58.651Z,88.10
2023-07-16T02:35:58.635Z,88.21
2023-07-16T02:36:58.623Z,88.31
2023-07-16T02:37:58.650Z,88.40
2023-07-16T02:38:59.505Z,88.31
2023-07-16T02:39:58.628Z,88.21
2023-07-16T02:40:58.607Z,88.85
2023-07-16T02:41:58.568Z,89.35
2023-07-16T02:42:59.253Z,89.25
2023-07-16T02:43:58.561Z,89.25
2023-07-16T02:44:58.534Z,89.55
2023-07-16T02:45:58.555Z,89.55
2023-07-16T02:46:58.557Z,89.75
2023-07-16T02:47:58.516Z,89.75
2023-07-16T02:48:58.492Z,90.09
2023-07-16T02:49:58.482Z,90.29
2023-07-16T02:50:58.495Z,90.39
2023-07-16T02:51:58.453Z,90.69
2023-07-16T02:52:58.446Z,90.89
2023-07-16T02:53:58.455Z,91.09
2023-07-16T02:54:58.454Z,91.09
2023-07-16T02:55:59.140Z,91.29
2023-07-16T02:56:58.427Z,91.19
2023-07-16T02:57:58.391Z,91.29
2023-07-16T02:58:58.396Z,91.39
2023-07-16T02:59:58.396Z,91.69
2023-07-16T03:00:58.448Z,91.89
2023-07-16T03:01:58.469Z,91.93
2023-07-16T03:02:58.426Z,92.13
2023-07-16T03:03:58.323Z,92.13
2023-07-16T03:04:58.376Z,92.54
2023-07-16T03:05:58.313Z,92.83
2023-07-16T03:06:58.304Z,92.93
2023-07-16T03:07:58.286Z,93.18
2023-07-16T03:08:58.293Z,93.18
2023-07-16T03:09:58.254Z,93.28
2023-07-16T03:10:58.328Z,93.38
2023-07-16T03:11:58.276Z,93.58
2023-07-16T03:12:58.244Z,93.58
2023-07-16T03:13:58.246Z,93.58
2023-07-16T03:14:58.232Z,93.88
2023-07-16T03:15:58.214Z,93.98
2023-07-16T03:16:58.256Z,94.08
2023-07-16T03:17:58.254Z,94.18
2023-07-16T03:18:58.767Z,93.98
2023-07-16T03:19:58.180Z,93.98
2023-07-16T03:20:58.152Z,93.98
2023-07-16T03:21:58.153Z,94.02
2023-07-16T03:22:58.161Z,94.23
2023-07-16T03:23:58.152Z,94.73
2023-07-16T03:24:58.219Z,94.62
2023-07-16T03:25:58.114Z,94.62
2023-07-16T03:27:08.181Z,94.93
2023-07-16T03:27:58.105Z,95.12
2023-07-16T03:28:58.070Z,95.12
2023-07-16T03:29:58.059Z,95.23
2023-07-16T03:30:58.090Z,95.12
2023-07-16T03:31:58.040Z,95.12
2023-07-16T03:32:58.084Z,95.03
2023-07-16T03:33:58.008Z,95.03
2023-07-16T03:34:58.017Z,94.93
2023-07-16T03:35:57.991Z,94.73
2023-07-16T03:36:57.978Z,94.62
2023-07-16T03:37:57.970Z,94.62
2023-07-16T03:38:58.053Z,94.53
2023-07-16T03:39:58.011Z,94.53
2023-07-16T03:40:57.956Z,94.62
2023-07-16T03:41:58.011Z,94.62
2023-07-16T03:42:57.920Z,94.62
2023-07-16T03:43:57.897Z,94.53
2023-07-16T03:44:57.895Z,94.43
2023-07-16T03:45:57.883Z,94.43
2023-07-16T03:46:57.947Z,94.43
2023-07-16T03:47:57.945Z,94.32
2023-07-16T03:48:57.868Z,94.23
2023-07-16T03:49:57.871Z,94.12
2023-07-16T03:50:57.836Z,94.12
2023-07-16T03:51:57.908Z,94.23
2023-07-16T03:52:57.816Z,94.12
2023-07-16T03:53:57.818Z,94.12
2023-07-16T03:54:57.781Z,94.37
2023-07-16T03:55:57.782Z,94.57
2023-07-16T03:56:57.754Z,94.57
2023-07-16T03:57:57.766Z,94.57
2023-07-16T03:58:58.639Z,94.57
2023-07-16T03:59:57.741Z,94.57
2023-07-16T04:00:57.719Z,94.67
2023-07-16T04:01:57.729Z,94.53
2023-07-16T04:02:57.810Z,94.53
2023-07-16T04:03:57.731Z,94.43
2023-07-16T04:04:57.683Z,94.32
2023-07-16T04:05:57.673Z,94.43
2023-07-16T04:06:57.650Z,94.32
2023-07-16T04:07:57.651Z,94.53
2023-07-16T04:08:57.682Z,94.43
2023-07-16T04:09:57.633Z,94.32
2023-07-16T04:10:57.665Z,94.32
2023-07-16T04:11:57.611Z,94.32
2023-07-16T04:12:57.606Z,94.43
2023-07-16T04:13:58.279Z,94.47
2023-07-16T04:14:57.589Z,94.53
2023-07-16T04:15:57.552Z,94.47
2023-07-16T04:16:57.578Z,94.57
2023-07-16T04:17:57.561Z,94.57
2023-07-16T04:18:57.533Z,94.67
2023-07-16T04:19:57.542Z,94.77
2023-07-16T04:20:57.507Z,95.07
2023-07-16T04:21:57.489Z,95.17
2023-07-16T04:22:57.540Z,95.27
2023-07-16T04:23:58.294Z,95.37
2023-07-16T04:24:57.522Z,95.27
2023-07-16T04:25:57.466Z,95.27
2023-07-16T04:26:57.451Z,95.17
2023-07-16T04:27:57.436Z,95.17
2023-07-16T04:28:57.440Z,95.17
2023-07-16T04:29:57.413Z,95.17
2023-07-16T04:30:57.415Z,95.17
2023-07-16T04:31:57.377Z,94.97
2023-07-16T04:32:57.422Z,94.77
2023-07-16T04:33:57.351Z,94.77
2023-07-16T04:34:57.397Z,94.87
2023-07-16T04:35:57.370Z,94.77
2023-07-16T04:36:57.367Z,94.77
2023-07-16T04:37:57.313Z,94.87
2023-07-16T04:38:57.309Z,94.87
2023-07-16T04:39:57.295Z,94.97
2023-07-16T04:40:57.294Z,94.87
2023-07-16T04:41:57.300Z,94.87
2023-07-16T04:42:57.264Z,94.87
2023-07-16T04:43:57.256Z,94.97
2023-07-16T04:44:57.248Z,94.77
2023-07-16T04:45:57.291Z,94.77
2023-07-16T04:46:57.481Z,94.87
2023-07-16T04:47:57.237Z,94.97
2023-07-16T04:48:57.201Z,94.97
2023-07-16T04:49:59.945Z,95.07
2023-07-16T04:50:57.165Z,94.97
2023-07-16T04:51:57.242Z,95.07
2023-07-16T04:52:57.184Z,95.17
2023-07-16T04:54:03.677Z,95.17
2023-07-16T04:54:57.129Z,95.17
2023-07-16T04:55:57.119Z,95.27
2023-07-16T04:56:57.099Z,95.47
2023-07-16T04:57:57.143Z,95.37
2023-07-16T04:58:57.078Z,95.27
2023-07-16T04:59:57.077Z,95.27
2023-07-16T05:00:57.082Z,95.17
2023-07-16T05:01:57.066Z,95.17
2023-07-16T05:02:57.051Z,95.07
2023-07-16T05:03:57.074Z,95.07
2023-07-16T05:04:57.014Z,94.87
2023-07-16T05:05:57.008Z,94.77
2023-07-16T05:06:56.997Z,94.87
2023-07-16T05:07:56.992Z,94.87
2023-07-16T05:08:57.044Z,94.87
2023-07-16T05:09:56.970Z,94.97
2023-07-16T05:10:56.949Z,94.67
2023-07-16T05:11:56.937Z,94.67
2023-07-16T05:12:56.923Z,94.67
2023-07-16T05:13:56.921Z,94.77
2023-07-16T05:14:56.941Z,94.87
2023-07-16T05:15:56.932Z,94.87
2023-07-16T05:16:56.986Z,94.77
2023-07-16T05:17:57.012Z,94.62
2023-07-16T05:18:56.866Z,94.62
2023-07-16T05:19:56.857Z,94.62
2023-07-16T05:20:56.852Z,94.53
2023-07-16T05:21:56.845Z,94.62
2023-07-16T05:22:56.871Z,94.43
2023-07-16T05:23:56.802Z,94.32
2023-07-16T05:24:56.796Z,94.32
2023-07-16T05:25:56.835Z,94.43
2023-07-16T05:26:56.765Z,94.32
2023-07-16T05:27:56.764Z,94.12
2023-07-16T05:28:56.750Z,93.62
2023-07-16T05:29:56.758Z,93.48
2023-07-16T05:30:56.754Z,93.58
2023-07-16T05:31:56.827Z,93.68
2023-07-16T05:32:56.764Z,93.68
2023-07-16T05:33:56.694Z,93.08
2023-07-16T05:34:56.738Z,92.98
2023-07-16T05:35:56.703Z,92.88
2023-07-16T05:36:56.671Z,92.98
2023-07-16T05:37:56.663Z,92.98
2023-07-16T05:38:56.656Z,92.88
2023-07-16T05:39:56.640Z,92.78
2023-07-16T05:40:56.633Z,92.48
2023-07-16T05:41:56.624Z,92.58
2023-07-16T05:42:56.602Z,92.68
2023-07-16T05:43:56.593Z,92.68
2023-07-16T05:44:56.612Z,92.68
2023-07-16T05:45:56.631Z,92.38
2023-07-16T05:46:56.557Z,92.18
2023-07-16T05:47:56.614Z,92.38
2023-07-16T05:48:56.624Z,92.28
2023-07-16T05:49:56.540Z,92.38
2023-07-16T05:50:56.540Z,92.18
2023-07-16T05:51:56.511Z,91.88
2023-07-16T05:52:56.491Z,91.88
2023-07-16T05:53:56.493Z,92.13
2023-07-16T05:54:56.464Z,92.03
2023-07-16T05:55:56.460Z,92.03
2023-07-16T05:56:56.458Z,91.83
2023-07-16T05:57:56.459Z,91.74
2023-07-16T05:58:56.433Z,91.44
2023-07-16T05:59:56.780Z,91.33
2023-07-16T06:00:56.405Z,91.49
2023-07-16T06:01:56.519Z,91.29
2023-07-16T06:02:56.419Z,91.09
2023-07-16T06:03:56.407Z,90.89
2023-07-16T06:04:56.364Z,90.99
2023-07-16T06:05:56.352Z,90.99
2023-07-16T06:06:56.359Z,90.99
2023-07-16T06:07:56.380Z,91.15
2023-07-16T06:08:56.407Z,90.95
2023-07-16T06:09:56.318Z,90.45
2023-07-16T06:10:56.318Z,90.05
2023-07-16T06:11:56.304Z,90.15
2023-07-16T06:12:56.308Z,90.05
2023-07-16T06:13:56.377Z,90.05
2023-07-16T06:14:56.290Z,89.85
2023-07-16T06:15:56.291Z,89.75
2023-07-16T06:16:56.296Z,89.05
2023-07-16T06:17:56.261Z,89.40
2023-07-16T06:18:56.214Z,89.51
2023-07-16T06:19:56.220Z,89.51
2023-07-16T06:20:56.211Z,89.20
2023-07-16T06:21:56.190Z,89.11
2023-07-16T06:22:56.223Z,89.20
2023-07-16T06:23:56.177Z,88.71
2023-07-16T06:24:56.178Z,88.56
2023-07-16T06:25:56.197Z,88.46
2023-07-16T06:26:56.134Z,88.37
2023-07-16T06:27:56.157Z,88.17
2023-07-16T06:28:56.120Z,87.87
2023-07-16T06:29:56.184Z,87.46
2023-07-16T06:30:56.337Z,87.57
2023-07-16T06:31:56.244Z,87.42
2023-07-16T06:32:56.239Z,87.23
2023-07-16T06:33:56.086Z,86.72
2023-07-16T06:34:56.114Z,86.63
2023-07-16T06:35:56.041Z,86.82
2023-07-16T06:36:56.068Z,85.53
2023-07-16T06:37:56.014Z,85.83
2023-07-16T06:38:55.996Z,85.39
2023-07-16T06:39:56.178Z,85.58
2023-07-16T06:40:55.998Z,85.88
2023-07-16T06:41:55.965Z,85.88
2023-07-16T06:42:55.968Z,85.69
2023-07-16T06:43:55.940Z,85.39
2023-07-16T06:44:55.953Z,84.89
2023-07-16T06:45:56.130Z,84.55
2023-07-16T06:46:55.917Z,84.45
2023-07-16T06:47:55.944Z,84.25
2023-07-16T06:48:55.932Z,83.85
2023-07-16T06:49:55.887Z,83.95
2023-07-16T06:50:55.888Z,83.65
2023-07-16T06:51:55.893Z,83.85
2023-07-16T06:52:55.874Z,83.21
2023-07-16T06:53:55.850Z,83.31
2023-07-16T06:54:55.833Z,83.01
2023-07-16T06:55:55.824Z,82.81
2023-07-16T06:56:55.840Z,82.81
2023-07-16T06:57:55.812Z,82.57
2023-07-16T06:58:55.787Z,81.88
2023-07-16T06:59:55.778Z,81.68
2023-07-16T07:00:55.823Z,81.77
2023-07-16T07:01:55.846Z,81.77
2023-07-16T07:02:55.818Z,81.18
2023-07-16T07:03:55.814Z,80.68
2023-07-16T07:04:55.738Z,80.29
2023-07-16T07:05:55.715Z,80.24
2023-07-16T07:06:55.753Z,80.24
2023-07-16T07:07:55.710Z,80.15
2023-07-16T07:08:55.692Z,79.85
2023-07-16T07:09:55.680Z,79.65
2023-07-16T07:10:55.676Z,79.65
2023-07-16T07:11:55.652Z,78.55
2023-07-16T07:12:55.682Z,79.15
2023-07-16T07:13:55.658Z,79.15
2023-07-16T07:14:55.623Z,79.25
2023-07-16T07:15:55.639Z,79.25
2023-07-16T07:16:55.601Z,79.35
2023-07-16T07:17:55.654Z,79.35
2023-07-16T07:18:55.613Z,78.65
2023-07-16T07:19:55.596Z,79.01
2023-07-16T07:20:55.568Z,78.91
2023-07-16T07:21:55.605Z,78.91
2023-07-16T07:22:55.588Z,78.31
2023-07-16T07:23:55.554Z,78.22
2023-07-16T07:24:55.522Z,78.42
2023-07-16T07:25:55.519Z,78.61
2023-07-16T07:26:55.504Z,78.42
2023-07-16T07:27:55.503Z,77.88
2023-07-16T07:28:55.481Z,78.08
2023-07-16T07:29:55.464Z,77.68
2023-07-16T07:30:55.489Z,77.98
2023-07-16T07:31:55.444Z,77.68
2023-07-16T07:32:55.482Z,77.55
2023-07-16T07:33:55.448Z,77.55
2023-07-16T07:34:55.471Z,77.05
2023-07-16T07:35:55.400Z,76.85
2023-07-16T07:36:55.381Z,77.05
2023-07-16T07:37:55.367Z,76.91
2023-07-16T07:38:55.372Z,76.61
2023-07-16T07:39:55.376Z,75.92
2023-07-16T07:40:55.357Z,75.92
2023-07-16T07:41:55.324Z,76.15
2023-07-16T07:42:55.337Z,74.96
2023-07-16T07:43:55.314Z,75.16
2023-07-16T07:44:55.301Z,75.20
2023-07-16T07:45:55.349Z,75.59
2023-07-16T07:46:55.312Z,75.59
2023-07-16T07:47:55.328Z,75.59
2023-07-16T07:48:55.264Z,75.89
2023-07-16T07:49:55.241Z,76.32
2023-07-16T07:50:55.243Z,76.49
2023-07-16T07:51:55.229Z,76.29
2023-07-16T07:52:55.224Z,76.39
2023-07-16T07:53:55.219Z,76.39
2023-07-16T07:54:55.207Z,76.29
2023-07-16T07:55:55.241Z,76.19
2023-07-16T07:56:55.229Z,76.19
2023-07-16T07:57:55.209Z,75.89
2023-07-16T07:58:55.241Z,75.99
2023-07-16T07:59:55.156Z,75.89
2023-07-16T08:00:55.156Z,75.69
2023-07-16T08:01:55.121Z,75.76
2023-07-16T08:02:55.192Z,75.56
2023-07-16T08:03:55.260Z,75.46
2023-07-16T08:04:55.265Z,75.85
2023-07-16T08:05:55.065Z,75.32
2023-07-16T08:06:55.078Z,75.32
2023-07-16T08:07:55.056Z,75.22
2023-07-16T08:08:55.094Z,74.63
2023-07-16T08:09:55.038Z,75.02
2023-07-16T08:10:55.029Z,73.73
2023-07-16T08:11:55.012Z,72.44
2023-07-16T08:12:55.018Z,72.04
2023-07-16T08:13:54.999Z,70.95
2023-07-16T08:14:54.993Z,70.85
2023-07-16T08:15:54.998Z,70.55
2023-07-16T08:16:55.040Z,70.55
2023-07-16T08:17:55.017Z,70.48
2023-07-16T08:18:54.943Z,70.29
2023-07-16T08:19:54.994Z,70.19
2023-07-16T08:20:54.980Z,69.92
2023-07-16T08:21:54.905Z,70.22
2023-07-16T08:22:55.031Z,70.32
2023-07-16T08:23:54.953Z,70.32
2023-07-16T08:24:54.891Z,70.82
2023-07-16T08:25:54.869Z,70.39
2023-07-16T08:26:54.851Z,70.09
2023-07-16T08:27:54.951Z,69.69
2023-07-16T08:28:54.852Z,69.49
2023-07-16T08:29:54.821Z,68.90
2023-07-16T08:30:54.844Z,69.09
2023-07-16T08:31:54.857Z,68.76
2023-07-16T08:32:54.856Z,69.16
2023-07-16T08:33:54.789Z,69.06
2023-07-16T08:34:54.769Z,69.16
2023-07-16T08:35:54.766Z,69.06
2023-07-16T08:36:54.753Z,69.26
2023-07-16T08:37:54.731Z,69.23
2023-07-16T08:38:54.774Z,68.73
2023-07-16T08:39:54.742Z,68.23
2023-07-16T08:40:54.720Z,68.33
2023-07-16T08:41:54.779Z,68.13
2023-07-16T08:42:54.697Z,67.60
2023-07-16T08:43:54.677Z,66.35
2023-07-16T08:44:54.748Z,66.55
2023-07-16T08:45:54.703Z,66.35
2023-07-16T08:46:54.710Z,66.22
2023-07-16T08:47:54.744Z,65.82
2023-07-16T08:48:54.632Z,65.72
2023-07-16T08:49:54.642Z,65.62
2023-07-16T08:50:54.715Z,65.52
2023-07-16T08:51:54.637Z,65.12
2023-07-16T08:52:54.585Z,65.32
2023-07-16T08:53:54.568Z,65.32
2023-07-16T08:54:54.566Z,65.99
2023-07-16T08:55:57.788Z,64.89
2023-07-16T08:56:54.733Z,64.70
2023-07-16T08:57:54.527Z,64.20
2023-07-16T08:58:54.509Z,64.99
2023-07-16T08:59:54.512Z,64.89
2023-07-16T09:00:54.500Z,65.29
2023-07-16T09:01:54.481Z,64.20
2023-07-16T09:02:54.509Z,64.10
2023-07-16T09:03:54.480Z,64.10
2023-07-16T09:04:54.491Z,63.70
2023-07-16T09:05:54.460Z,64.10
2023-07-16T09:06:54.442Z,63.80
2023-07-16T09:07:54.422Z,63.87
2023-07-16T09:08:54.432Z,63.48
2023-07-16T09:09:54.392Z,63.57
2023-07-16T09:10:54.395Z,63.18
2023-07-16T09:11:54.393Z,62.68
2023-07-16T09:12:54.362Z,62.88
2023-07-16T09:13:54.373Z,62.48
2023-07-16T09:14:54.348Z,62.88
2023-07-16T09:15:54.340Z,61.29
2023-07-16T09:16:54.424Z,61.79
2023-07-16T09:17:54.379Z,61.32
2023-07-16T09:18:54.304Z,60.72
2023-07-16T09:19:54.310Z,60.83
2023-07-16T09:20:54.432Z,60.93
2023-07-16T09:21:54.263Z,60.30
2023-07-16T09:22:54.320Z,60.80
2023-07-16T09:23:54.247Z,59.70
2023-07-16T09:24:54.248Z,59.80
2023-07-16T09:25:54.242Z,59.41
2023-07-16T09:26:54.315Z,60.10
2023-07-16T09:27:54.204Z,59.80
2023-07-16T09:28:54.201Z,60.40
2023-07-16T09:29:54.185Z,60.30
2023-07-16T09:30:54.314Z,60.30
2023-07-16T09:31:54.268Z,60.20
2023-07-16T09:32:54.243Z,60.00
2023-07-16T09:33:54.140Z,60.00
2023-07-16T09:34:54.136Z,60.30
2023-07-16T09:35:54.164Z,59.61
2023-07-16T09:36:54.133Z,59.91
2023-07-16T09:37:54.096Z,59.80
2023-07-16T09:38:54.129Z,59.51
2023-07-16T09:39:54.071Z,60.30
2023-07-16T09:40:54.108Z,60.10
2023-07-16T09:41:54.058Z,60.60
2023-07-16T09:42:54.060Z,60.30
2023-07-16T09:43:54.071Z,60.20
2023-07-16T09:44:54.056Z,60.20
2023-07-16T09:45:54.065Z,60.10
2023-07-16T09:46:54.097Z,60.10
2023-07-16T09:47:54.037Z,60.10
2023-07-16T09:48:53.992Z,60.00
2023-07-16T09:49:54.008Z,59.91
2023-07-16T09:50:54.148Z,60.20
2023-07-16T09:51:53.966Z,59.80
2023-07-16T09:52:53.951Z,60.00
2023-07-16T09:53:53.934Z,60.20
2023-07-16T09:54:53.933Z,60.30
2023-07-16T09:55:53.916Z,60.80
2023-07-16T09:56:53.973Z,60.99
2023-07-16T09:57:53.916Z,60.89
2023-07-16T09:58:54.808Z,61.10
2023-07-16T09:59:53.923Z,61.29
2023-07-16T10:00:53.962Z,61.39
2023-07-16T10:01:53.883Z,61.39
2023-07-16T10:02:53.925Z,61.19
2023-07-16T10:03:53.884Z,60.50
2023-07-16T10:04:53.856Z,60.20
2023-07-16T10:05:53.860Z,60.10
2023-07-16T10:06:53.805Z,59.91
2023-07-16T10:07:53.789Z,59.91
2023-07-16T10:08:53.778Z,60.30
2023-07-16T10:09:53.840Z,60.50
2023-07-16T10:10:53.770Z,60.89
2023-07-16T10:11:53.740Z,60.99
2023-07-16T10:12:53.786Z,61.19
2023-07-16T10:13:53.724Z,60.99
2023-07-16T10:14:53.724Z,60.60
2023-07-16T10:15:53.822Z,60.57
2023-07-16T10:16:53.781Z,60.17
2023-07-16T10:17:53.726Z,60.07
2023-07-16T10:18:53.679Z,60.17
2023-07-16T10:19:53.692Z,60.17
2023-07-16T10:20:53.710Z,60.17
2023-07-16T10:21:53.633Z,59.84
2023-07-16T10:22:53.693Z,59.15
2023-07-16T10:23:53.618Z,59.45
2023-07-16T10:24:53.641Z,59.35
2023-07-16T10:25:53.677Z,59.15
2023-07-16T10:26:53.592Z,59.15
2023-07-16T10:27:53.575Z,59.35
2023-07-16T10:28:53.581Z,59.45
2023-07-16T10:29:53.556Z,59.55
2023-07-16T10:30:53.576Z,59.45
2023-07-16T10:31:53.988Z,59.05
2023-07-16T10:32:53.713Z,59.05
2023-07-16T10:33:53.508Z,59.15
2023-07-16T10:34:53.505Z,59.38
2023-07-16T10:35:53.507Z,59.58
2023-07-16T10:36:53.484Z,59.58
2023-07-16T10:37:53.505Z,59.45
2023-07-16T10:38:53.455Z,59.55
2023-07-16T10:39:53.454Z,59.45
2023-07-16T10:40:53.608Z,59.15
2023-07-16T10:41:53.451Z,59.75
2023-07-16T10:42:53.430Z,58.59
2023-07-16T10:43:55.680Z,59.18
2023-07-16T10:44:53.407Z,59.78
2023-07-16T10:45:53.420Z,59.58
2023-07-16T10:46:53.404Z,59.88
2023-07-16T10:47:53.704Z,60.07
2023-07-16T10:48:53.352Z,59.70
2023-07-16T10:49:53.374Z,60.00
2023-07-16T10:50:53.338Z,60.10
2023-07-16T10:51:53.329Z,60.10
2023-07-16T10:52:53.318Z,59.61
2023-07-16T10:53:53.337Z,59.91
2023-07-16T10:54:53.285Z,59.91
2023-07-16T10:55:53.278Z,60.20
2023-07-16T10:56:53.271Z,60.40
2023-07-16T10:57:53.260Z,60.63
2023-07-16T10:58:53.248Z,61.02
2023-07-16T10:59:53.241Z,60.93
2023-07-16T11:00:53.287Z,61.02
2023-07-16T11:01:53.275Z,61.12
2023-07-16T11:02:53.330Z,61.22
2023-07-16T11:03:53.316Z,61.39
2023-07-16T11:04:53.182Z,61.19
2023-07-16T11:05:53.198Z,60.89
2023-07-16T11:06:53.154Z,60.57
2023-07-16T11:07:55.108Z,60.17
2023-07-16T11:08:53.145Z,59.94
2023-07-16T11:09:53.146Z,59.35
2023-07-16T11:10:53.130Z,59.65
2023-07-16T11:11:53.141Z,60.02
2023-07-16T11:12:53.091Z,59.12
2023-07-16T11:13:53.152Z,59.09
2023-07-16T11:14:53.073Z,59.39
2023-07-16T11:15:53.140Z,58.50
2023-07-16T11:16:53.055Z,58.40
2023-07-16T11:17:53.160Z,58.80
2023-07-16T11:18:53.036Z,58.80
2023-07-16T11:19:53.045Z,58.90
2023-07-16T11:20:53.001Z,59.30
2023-07-16T11:21:52.996Z,59.19
2023-07-16T11:22:53.075Z,59.39
2023-07-16T11:23:52.981Z,59.59
2023-07-16T11:24:53.042Z,59.19
2023-07-16T11:25:52.966Z,58.90
2023-07-16T11:26:52.957Z,59.32
2023-07-16T11:27:52.935Z,59.32
2023-07-16T11:28:52.955Z,59.72
2023-07-16T11:29:53.565Z,59.09
2023-07-16T11:30:52.948Z,58.80
2023-07-16T11:31:53.036Z,59.19
2023-07-16T11:32:53.123Z,58.30
2023-07-16T11:33:52.869Z,57.88
2023-07-16T11:34:52.857Z,57.78
2023-07-16T11:35:52.881Z,58.37
2023-07-16T11:36:52.835Z,58.18
2023-07-16T11:37:52.830Z,58.15
2023-07-16T11:38:52.816Z,57.16
2023-07-16T11:39:52.809Z,55.15
2023-07-16T11:40:52.813Z,55.15
2023-07-16T11:41:52.808Z,54.76
2023-07-16T11:42:52.774Z,54.83
2023-07-16T11:43:52.780Z,53.25
2023-07-16T11:44:52.751Z,51.94
2023-07-16T11:45:52.747Z,52.04
2023-07-16T11:46:52.840Z,51.54
2023-07-16T11:47:52.780Z,51.92
2023-07-16T11:48:52.708Z,52.01
2023-07-16T11:49:52.699Z,51.40
2023-07-16T11:50:52.694Z,51.79
2023-07-16T11:51:52.684Z,49.45
2023-07-16T11:52:52.855Z,52.01
2023-07-16T11:53:52.972Z,50.04
2023-07-16T11:54:52.666Z,48.27
2023-07-16T11:55:52.639Z,49.05
2023-07-16T11:56:52.656Z,47.85
2023-07-16T11:57:52.650Z,48.14
2023-07-16T11:58:52.630Z,47.94
2023-07-16T11:59:52.641Z,46.96
2023-07-16T12:00:52.690Z,45.20
2023-07-16T12:01:52.572Z,43.92
2023-07-16T12:02:53.160Z,44.00
2023-07-16T12:03:52.613Z,43.90
2023-07-16T12:04:52.541Z,44.20
2023-07-16T12:05:54.229Z,43.78
2023-07-16T12:06:52.541Z,43.56
2023-07-16T12:07:52.522Z,43.86
2023-07-16T12:08:52.499Z,42.85
2023-07-16T12:09:52.498Z,43.15
2023-07-16T12:10:52.491Z,42.73
2023-07-16T12:11:52.516Z,42.54
2023-07-16T12:12:52.463Z,42.41
2023-07-16T12:13:52.447Z,42.22
2023-07-16T12:14:52.440Z,41.93
2023-07-16T12:15:52.461Z,41.71
2023-07-16T12:16:52.482Z,42.86
2023-07-16T12:17:52.454Z,40.51
2023-07-16T12:18:52.410Z,41.00
2023-07-16T12:19:52.441Z,41.29
2023-07-16T12:20:52.374Z,41.98
2023-07-16T12:21:54.473Z,41.17
2023-07-16T12:22:52.466Z,41.37
2023-07-16T12:23:52.349Z,41.96
2023-07-16T12:24:52.344Z,40.88
2023-07-16T12:25:52.335Z,42.25
2023-07-16T12:26:52.309Z,40.61
2023-07-16T12:27:55.822Z,41.19
2023-07-16T12:28:52.309Z,41.29
2023-07-16T12:29:52.293Z,40.82
2023-07-16T12:30:52.302Z,41.41
2023-07-16T12:31:52.326Z,41.39
2023-07-16T12:32:52.285Z,40.48
2023-07-16T12:33:54.359Z,41.67
2023-07-16T12:34:52.246Z,40.88
2023-07-16T12:35:52.212Z,40.29
2023-07-16T12:36:52.222Z,39.90
2023-07-16T12:37:52.430Z,41.55
2023-07-16T12:38:52.179Z,39.19
2023-07-16T12:39:52.207Z,39.66
2023-07-16T12:40:52.166Z,38.88
2023-07-16T12:41:52.161Z,38.85
2023-07-16T12:42:52.139Z,38.66
2023-07-16T12:43:52.160Z,39.62
2023-07-16T12:44:52.116Z,39.54
2023-07-16T12:45:52.117Z,38.85
2023-07-16T12:46:52.147Z,39.17
2023-07-16T12:47:52.189Z,38.88
2023-07-16T12:48:52.079Z,38.50
2023-07-16T12:49:52.069Z,39.21
2023-07-16T12:50:52.082Z,39.13
2023-07-16T12:51:52.068Z,39.82